Terminal Aerodrome Forecast
Issued by NWS Blacksburg, VA

Home | Current Version | Previous Version | Text Only | Print | Product List | Glossary On
Versions: 1 2 3 4 5 6 7 8 9 10 11 12 13 14 15 16 17 18 19
000
FTUS41 KRNK 152320
TAFLYH
TAF
KLYH 152320Z 1600/1624 33008KT P6SM -RA SCT040 OVC080
     FM160100 32012G24KT P6SM BKN080
     FM160500 33007KT P6SM SKC
     FM161600 05010KT P6SM SKC=

USA.gov is the U.S. government's official web portal to all federal, state and local government web resources and services.